sensor_id;sensor_type;location;lat;lon;timestamp;P1;durP1;ratioP1;P2;durP2;ratioP2
47381;SDS011;33128;51.580;5.170;2023-04-06T00:01:36;689.58;;;629.63;;
47381;SDS011;33128;51.580;5.170;2023-04-06T00:04:02;604.40;;;545.35;;
47381;SDS011;33128;51.580;5.170;2023-04-06T00:06:28;669.15;;;609.83;;
47381;SDS011;33128;51.580;5.170;2023-04-06T00:08:53;651.22;;;591.90;;
47381;SDS011;33128;51.580;5.170;2023-04-06T00:11:19;582.60;;;526.35;;
47381;SDS011;33128;51.580;5.170;2023-04-06T00:13:45;614.53;;;556.85;;
47381;SDS011;33128;51.580;5.170;2023-04-06T00:16:10;632.88;;;574.65;;
47381;SDS011;33128;51.580;5.170;2023-04-06T00:18:36;605.58;;;548.38;;
47381;SDS011;33128;51.580;5.170;2023-04-06T00:21:02;680.95;;;620.72;;
47381;SDS011;33128;51.580;5.170;2023-04-06T00:23:28;544.70;;;490.20;;
47381;SDS011;33128;51.580;5.170;2023-04-06T00:25:53;575.78;;;518.38;;
47381;SDS011;33128;51.580;5.170;2023-04-06T00:28:19;613.22;;;554.28;;
47381;SDS011;33128;51.580;5.170;2023-04-06T00:30:50;661.35;;;601.40;;
47381;SDS011;33128;51.580;5.170;2023-04-06T00:33:17;623.33;;;564.88;;
47381;SDS011;33128;51.580;5.170;2023-04-06T00:35:43;628.55;;;570.47;;
47381;SDS011;33128;51.580;5.170;2023-04-06T00:38:09;618.63;;;559.90;;
47381;SDS011;33128;51.580;5.170;2023-04-06T00:40:35;674.00;;;614.13;;
47381;SDS011;33128;51.580;5.170;2023-04-06T00:43:00;653.80;;;594.58;;
47381;SDS011;33128;51.580;5.170;2023-04-06T00:45:27;620.10;;;561.97;;
47381;SDS011;33128;51.580;5.170;2023-04-06T00:47:53;618.63;;;560.33;;
47381;SDS011;33128;51.580;5.170;2023-04-06T00:50:21;563.25;;;506.85;;
47381;SDS011;33128;51.580;5.170;2023-04-06T00:52:47;644.33;;;585.60;;
47381;SDS011;33128;51.580;5.170;2023-04-06T00:55:12;686.53;;;626.65;;
47381;SDS011;33128;51.580;5.170;2023-04-06T00:57:38;571.38;;;514.53;;
47381;SDS011;33128;51.580;5.170;2023-04-06T01:00:04;686.65;;;626.70;;
47381;SDS011;33128;51.580;5.170;2023-04-06T01:02:30;682.65;;;623.08;;
47381;SDS011;33128;51.580;5.170;2023-04-06T01:04:55;617.92;;;559.33;;
47381;SDS011;33128;51.580;5.170;2023-04-06T01:07:21;611.05;;;553.55;;
47381;SDS011;33128;51.580;5.170;2023-04-06T01:09:47;612.50;;;554.63;;
47381;SDS011;33128;51.580;5.170;2023-04-06T01:12:13;569.60;;;513.00;;
47381;SDS011;33128;51.580;5.170;2023-04-06T01:14:38;682.08;;;622.53;;
47381;SDS011;33128;51.580;5.170;2023-04-06T01:17:04;645.80;;;587.08;;
47381;SDS011;33128;51.580;5.170;2023-04-06T01:19:29;636.00;;;576.50;;
47381;SDS011;33128;51.580;5.170;2023-04-06T01:21:55;658.63;;;597.30;;
47381;SDS011;33128;51.580;5.170;2023-04-06T01:24:21;614.00;;;554.33;;
47381;SDS011;33128;51.580;5.170;2023-04-06T01:26:47;693.67;;;631.60;;
47381;SDS011;33128;51.580;5.170;2023-04-06T01:29:12;710.58;;;648.60;;
47381;SDS011;33128;51.580;5.170;2023-04-06T01:31:38;582.28;;;524.03;;
47381;SDS011;33128;51.580;5.170;2023-04-06T01:34:04;705.13;;;643.47;;
47381;SDS011;33128;51.580;5.170;2023-04-06T01:36:30;691.22;;;630.95;;
47381;SDS011;33128;51.580;5.170;2023-04-06T01:38:56;679.15;;;617.35;;
47381;SDS011;33128;51.580;5.170;2023-04-06T01:41:22;694.35;;;632.70;;
47381;SDS011;33128;51.580;5.170;2023-04-06T01:43:51;664.72;;;604.30;;
47381;SDS011;33128;51.580;5.170;2023-04-06T01:46:19;570.22;;;512.83;;
47381;SDS011;33128;51.580;5.170;2023-04-06T01:48:45;751.28;;;685.60;;
47381;SDS011;33128;51.580;5.170;2023-04-06T01:51:10;737.22;;;673.33;;
47381;SDS011;33128;51.580;5.170;2023-04-06T01:53:36;768.28;;;701.80;;
47381;SDS011;33128;51.580;5.170;2023-04-06T01:56:02;758.42;;;694.00;;
47381;SDS011;33128;51.580;5.170;2023-04-06T01:58:27;649.90;;;590.92;;
47381;SDS011;33128;51.580;5.170;2023-04-06T02:00:53;731.53;;;668.28;;
47381;SDS011;33128;51.580;5.170;2023-04-06T02:03:19;721.83;;;659.33;;
47381;SDS011;33128;51.580;5.170;2023-04-06T02:05:45;762.30;;;697.13;;
47381;SDS011;33128;51.580;5.170;2023-04-06T02:08:10;711.42;;;650.00;;
47381;SDS011;33128;51.580;5.170;2023-04-06T02:10:36;676.15;;;615.72;;
47381;SDS011;33128;51.580;5.170;2023-04-06T02:13:01;582.72;;;524.40;;
47381;SDS011;33128;51.580;5.170;2023-04-06T02:15:27;674.50;;;614.28;;
47381;SDS011;33128;51.580;5.170;2023-04-06T02:17:53;655.05;;;594.38;;
47381;SDS011;33128;51.580;5.170;2023-04-06T02:20:18;753.20;;;687.83;;
47381;SDS011;33128;51.580;5.170;2023-04-06T02:22:44;725.40;;;661.50;;
47381;SDS011;33128;51.580;5.170;2023-04-06T02:25:10;675.38;;;612.95;;
47381;SDS011;33128;51.580;5.170;2023-04-06T02:27:35;718.03;;;655.20;;
47381;SDS011;33128;51.580;5.170;2023-04-06T02:30:04;671.60;;;611.53;;
47381;SDS011;33128;51.580;5.170;2023-04-06T02:32:31;575.42;;;518.38;;
47381;SDS011;33128;51.580;5.170;2023-04-06T02:34:56;711.25;;;648.88;;
47381;SDS011;33128;51.580;5.170;2023-04-06T02:37:22;690.17;;;629.53;;
47381;SDS011;33128;51.580;5.170;2023-04-06T02:39:49;717.25;;;655.45;;
47381;SDS011;33128;51.580;5.170;2023-04-06T02:42:14;664.90;;;605.92;;
47381;SDS011;33128;51.580;5.170;2023-04-06T02:44:41;612.45;;;554.05;;
47381;SDS011;33128;51.580;5.170;2023-04-06T02:47:07;704.47;;;643.55;;
47381;SDS011;33128;51.580;5.170;2023-04-06T02:49:32;726.20;;;662.30;;
47381;SDS011;33128;51.580;5.170;2023-04-06T02:51:58;599.10;;;539.72;;
47381;SDS011;33128;51.580;5.170;2023-04-06T02:54:23;720.17;;;658.30;;
47381;SDS011;33128;51.580;5.170;2023-04-06T02:56:49;720.08;;;657.85;;
47381;SDS011;33128;51.580;5.170;2023-04-06T02:59:15;622.33;;;563.58;;
47381;SDS011;33128;51.580;5.170;2023-04-06T03:01:40;704.22;;;642.72;;
47381;SDS011;33128;51.580;5.170;2023-04-06T03:04:06;181.65;;;166.02;;
47381;SDS011;33128;51.580;5.170;2023-04-06T03:06:32;629.00;;;580.28;;
47381;SDS011;33128;51.580;5.170;2023-04-06T03:08:57;800.55;;;737.30;;
47381;SDS011;33128;51.580;5.170;2023-04-06T03:11:23;822.08;;;753.50;;
47381;SDS011;33128;51.580;5.170;2023-04-06T03:13:48;802.15;;;734.70;;
47381;SDS011;33128;51.580;5.170;2023-04-06T03:16:14;808.78;;;740.85;;
47381;SDS011;33128;51.580;5.170;2023-04-06T03:18:39;686.85;;;623.85;;
47381;SDS011;33128;51.580;5.170;2023-04-06T03:21:05;783.53;;;717.20;;
47381;SDS011;33128;51.580;5.170;2023-04-06T03:23:31;807.20;;;739.67;;
47381;SDS011;33128;51.580;5.170;2023-04-06T03:25:56;650.83;;;588.75;;
47381;SDS011;33128;51.580;5.170;2023-04-06T03:28:22;782.80;;;718.70;;
47381;SDS011;33128;51.580;5.170;2023-04-06T03:30:48;797.97;;;731.28;;
47381;SDS011;33128;51.580;5.170;2023-04-06T03:33:14;508.75;;;459.45;;
47381;SDS011;33128;51.580;5.170;2023-04-06T03:35:40;824.60;;;755.78;;
47381;SDS011;33128;51.580;5.170;2023-04-06T03:38:05;784.65;;;717.65;;
47381;SDS011;33128;51.580;5.170;2023-04-06T03:40:31;778.97;;;713.00;;
47381;SDS011;33128;51.580;5.170;2023-04-06T03:42:57;767.08;;;701.80;;
47381;SDS011;33128;51.580;5.170;2023-04-06T03:45:22;759.22;;;694.47;;
47381;SDS011;33128;51.580;5.170;2023-04-06T03:47:48;770.85;;;705.30;;
47381;SDS011;33128;51.580;5.170;2023-04-06T03:50:13;748.47;;;684.65;;
47381;SDS011;33128;51.580;5.170;2023-04-06T03:52:39;678.30;;;615.50;;
47381;SDS011;33128;51.580;5.170;2023-04-06T03:55:05;11.57;;;10.43;;
47381;SDS011;33128;51.580;5.170;2023-04-06T03:57:31;14.55;;;9.98;;
47381;SDS011;33128;51.580;5.170;2023-04-06T03:59:57;11.95;;;10.90;;
47381;SDS011;33128;51.580;5.170;2023-04-06T04:02:23;11.48;;;10.63;;
47381;SDS011;33128;51.580;5.170;2023-04-06T04:04:51;11.35;;;10.25;;
47381;SDS011;33128;51.580;5.170;2023-04-06T04:07:17;10.65;;;9.80;;
47381;SDS011;33128;51.580;5.170;2023-04-06T04:09:42;11.23;;;10.07;;
47381;SDS011;33128;51.580;5.170;2023-04-06T04:12:08;10.48;;;9.68;;
47381;SDS011;33128;51.580;5.170;2023-04-06T04:14:33;11.70;;;10.60;;
47381;SDS011;33128;51.580;5.170;2023-04-06T04:16:59;10.75;;;9.85;;
47381;SDS011;33128;51.580;5.170;2023-04-06T04:19:25;12.18;;;10.02;;
47381;SDS011;33128;51.580;5.170;2023-04-06T04:21:50;10.32;;;9.50;;
47381;SDS011;33128;51.580;5.170;2023-04-06T04:24:16;11.23;;;10.38;;
47381;SDS011;33128;51.580;5.170;2023-04-06T04:26:41;11.50;;;10.65;;
47381;SDS011;33128;51.580;5.170;2023-04-06T04:29:07;12.70;;;10.95;;
47381;SDS011;33128;51.580;5.170;2023-04-06T04:31:33;10.32;;;9.63;;
47381;SDS011;33128;51.580;5.170;2023-04-06T04:33:58;10.68;;;9.57;;
47381;SDS011;33128;51.580;5.170;2023-04-06T04:36:25;10.93;;;10.02;;
47381;SDS011;33128;51.580;5.170;2023-04-06T04:38:51;13.27;;;11.15;;
47381;SDS011;33128;51.580;5.170;2023-04-06T04:41:17;12.77;;;11.55;;
47381;SDS011;33128;51.580;5.170;2023-04-06T04:43:43;11.25;;;10.35;;
47381;SDS011;33128;51.580;5.170;2023-04-06T04:46:09;11.52;;;10.52;;
47381;SDS011;33128;51.580;5.170;2023-04-06T04:48:35;11.18;;;10.13;;
47381;SDS011;33128;51.580;5.170;2023-04-06T04:51:00;10.05;;;9.25;;
47381;SDS011;33128;51.580;5.170;2023-04-06T04:53:26;13.27;;;12.07;;
47381;SDS011;33128;51.580;5.170;2023-04-06T04:55:51;27.58;;;25.42;;
47381;SDS011;33128;51.580;5.170;2023-04-06T04:58:17;27.95;;;25.95;;
47381;SDS011;33128;51.580;5.170;2023-04-06T05:00:45;26.02;;;24.67;;
47381;SDS011;33128;51.580;5.170;2023-04-06T05:03:24;24.40;;;22.80;;
47381;SDS011;33128;51.580;5.170;2023-04-06T05:05:51;25.73;;;23.63;;
47381;SDS011;33128;51.580;5.170;2023-04-06T05:08:17;24.75;;;22.92;;
47381;SDS011;33128;51.580;5.170;2023-04-06T05:10:43;23.73;;;21.80;;
47381;SDS011;33128;51.580;5.170;2023-04-06T05:13:10;23.48;;;21.75;;
47381;SDS011;33128;51.580;5.170;2023-04-06T05:15:36;24.40;;;22.40;;
47381;SDS011;33128;51.580;5.170;2023-04-06T05:18:05;25.35;;;22.98;;
47381;SDS011;33128;51.580;5.170;2023-04-06T05:20:31;23.13;;;21.42;;
47381;SDS011;33128;51.580;5.170;2023-04-06T05:22:57;23.70;;;21.73;;
47381;SDS011;33128;51.580;5.170;2023-04-06T05:25:23;21.58;;;19.90;;
47381;SDS011;33128;51.580;5.170;2023-04-06T05:27:48;21.80;;;19.67;;
47381;SDS011;33128;51.580;5.170;2023-04-06T05:30:14;20.80;;;19.20;;
47381;SDS011;33128;51.580;5.170;2023-04-06T05:32:40;22.05;;;20.20;;
47381;SDS011;33128;51.580;5.170;2023-04-06T05:35:07;20.10;;;18.27;;
47381;SDS011;33128;51.580;5.170;2023-04-06T05:37:36;21.70;;;19.92;;
47381;SDS011;33128;51.580;5.170;2023-04-06T05:40:02;20.88;;;19.10;;
47381;SDS011;33128;51.580;5.170;2023-04-06T05:42:30;18.02;;;16.63;;
47381;SDS011;33128;51.580;5.170;2023-04-06T05:45:02;18.90;;;17.42;;
47381;SDS011;33128;51.580;5.170;2023-04-06T05:47:29;19.88;;;18.58;;
47381;SDS011;33128;51.580;5.170;2023-04-06T05:49:57;21.88;;;19.90;;
47381;SDS011;33128;51.580;5.170;2023-04-06T05:52:23;22.13;;;20.38;;
47381;SDS011;33128;51.580;5.170;2023-04-06T05:54:49;21.65;;;19.98;;
47381;SDS011;33128;51.580;5.170;2023-04-06T05:57:15;20.55;;;18.67;;
47381;SDS011;33128;51.580;5.170;2023-04-06T05:59:41;19.88;;;18.20;;
47381;SDS011;33128;51.580;5.170;2023-04-06T06:02:07;20.77;;;19.08;;
47381;SDS011;33128;51.580;5.170;2023-04-06T06:04:33;19.33;;;17.52;;
47381;SDS011;33128;51.580;5.170;2023-04-06T06:06:58;19.88;;;18.08;;
47381;SDS011;33128;51.580;5.170;2023-04-06T06:09:24;22.20;;;19.20;;
47381;SDS011;33128;51.580;5.170;2023-04-06T06:11:50;19.98;;;18.30;;
47381;SDS011;33128;51.580;5.170;2023-04-06T06:14:16;20.20;;;18.23;;
47381;SDS011;33128;51.580;5.170;2023-04-06T06:16:41;19.50;;;18.10;;
47381;SDS011;33128;51.580;5.170;2023-04-06T06:19:07;19.75;;;18.15;;
47381;SDS011;33128;51.580;5.170;2023-04-06T06:21:32;20.13;;;18.13;;
47381;SDS011;33128;51.580;5.170;2023-04-06T06:23:58;19.65;;;17.67;;
47381;SDS011;33128;51.580;5.170;2023-04-06T06:26:23;19.27;;;17.70;;
47381;SDS011;33128;51.580;5.170;2023-04-06T06:28:49;19.27;;;17.38;;
47381;SDS011;33128;51.580;5.170;2023-04-06T06:31:15;18.20;;;16.48;;
47381;SDS011;33128;51.580;5.170;2023-04-06T06:33:41;19.58;;;18.13;;
47381;SDS011;33128;51.580;5.170;2023-04-06T06:36:06;20.42;;;18.58;;
47381;SDS011;33128;51.580;5.170;2023-04-06T06:38:32;21.27;;;19.30;;
47381;SDS011;33128;51.580;5.170;2023-04-06T06:41:00;20.58;;;18.58;;
47381;SDS011;33128;51.580;5.170;2023-04-06T06:43:26;19.13;;;17.52;;
47381;SDS011;33128;51.580;5.170;2023-04-06T06:45:51;21.25;;;19.35;;
47381;SDS011;33128;51.580;5.170;2023-04-06T06:48:17;20.23;;;18.45;;
47381;SDS011;33128;51.580;5.170;2023-04-06T06:50:42;20.17;;;18.48;;
47381;SDS011;33128;51.580;5.170;2023-04-06T06:53:11;22.50;;;20.17;;
47381;SDS011;33128;51.580;5.170;2023-04-06T06:55:37;21.38;;;19.38;;
47381;SDS011;33128;51.580;5.170;2023-04-06T06:58:03;20.52;;;18.83;;
47381;SDS011;33128;51.580;5.170;2023-04-06T07:00:28;19.90;;;18.42;;
47381;SDS011;33128;51.580;5.170;2023-04-06T07:02:54;20.30;;;18.58;;
47381;SDS011;33128;51.580;5.170;2023-04-06T07:05:19;20.23;;;18.58;;
47381;SDS011;33128;51.580;5.170;2023-04-06T07:07:45;20.63;;;18.88;;
47381;SDS011;33128;51.580;5.170;2023-04-06T07:10:13;19.67;;;17.70;;
47381;SDS011;33128;51.580;5.170;2023-04-06T07:12:39;20.15;;;18.42;;
47381;SDS011;33128;51.580;5.170;2023-04-06T07:15:05;20.10;;;18.42;;
47381;SDS011;33128;51.580;5.170;2023-04-06T07:17:31;21.17;;;19.50;;
47381;SDS011;33128;51.580;5.170;2023-04-06T07:19:56;19.23;;;17.77;;
47381;SDS011;33128;51.580;5.170;2023-04-06T07:22:22;20.80;;;19.10;;
47381;SDS011;33128;51.580;5.170;2023-04-06T07:24:47;20.38;;;18.70;;
47381;SDS011;33128;51.580;5.170;2023-04-06T07:27:13;20.05;;;18.45;;
47381;SDS011;33128;51.580;5.170;2023-04-06T07:29:39;20.63;;;18.98;;
47381;SDS011;33128;51.580;5.170;2023-04-06T07:32:04;19.27;;;17.70;;
47381;SDS011;33128;51.580;5.170;2023-04-06T07:34:33;20.17;;;18.55;;
47381;SDS011;33128;51.580;5.170;2023-04-06T07:36:59;22.20;;;19.58;;
47381;SDS011;33128;51.580;5.170;2023-04-06T07:39:25;19.80;;;18.10;;
47381;SDS011;33128;51.580;5.170;2023-04-06T07:41:52;19.52;;;17.92;;
47381;SDS011;33128;51.580;5.170;2023-04-06T07:44:17;20.52;;;19.02;;
47381;SDS011;33128;51.580;5.170;2023-04-06T07:46:43;19.77;;;18.00;;
47381;SDS011;33128;51.580;5.170;2023-04-06T07:49:09;20.30;;;18.45;;
47381;SDS011;33128;51.580;5.170;2023-04-06T07:51:38;19.25;;;17.67;;
47381;SDS011;33128;51.580;5.170;2023-04-06T07:54:04;21.15;;;19.27;;
47381;SDS011;33128;51.580;5.170;2023-04-06T07:56:30;20.02;;;18.17;;
47381;SDS011;33128;51.580;5.170;2023-04-06T07:58:55;19.15;;;17.45;;
47381;SDS011;33128;51.580;5.170;2023-04-06T08:01:22;20.77;;;19.00;;
47381;SDS011;33128;51.580;5.170;2023-04-06T08:03:47;17.58;;;16.20;;
47381;SDS011;33128;51.580;5.170;2023-04-06T08:06:16;17.83;;;16.38;;
47381;SDS011;33128;51.580;5.170;2023-04-06T08:08:45;20.08;;;18.33;;
47381;SDS011;33128;51.580;5.170;2023-04-06T08:11:10;18.92;;;17.30;;
47381;SDS011;33128;51.580;5.170;2023-04-06T08:13:36;21.38;;;19.42;;
47381;SDS011;33128;51.580;5.170;2023-04-06T08:16:01;18.83;;;17.15;;
47381;SDS011;33128;51.580;5.170;2023-04-06T08:18:36;23.85;;;17.27;;
47381;SDS011;33128;51.580;5.170;2023-04-06T08:21:05;19.13;;;17.17;;
47381;SDS011;33128;51.580;5.170;2023-04-06T08:23:30;22.95;;;16.30;;
47381;SDS011;33128;51.580;5.170;2023-04-06T08:25:56;18.92;;;17.17;;
47381;SDS011;33128;51.580;5.170;2023-04-06T08:28:22;19.08;;;17.25;;
47381;SDS011;33128;51.580;5.170;2023-04-06T08:30:47;19.88;;;17.90;;
47381;SDS011;33128;51.580;5.170;2023-04-06T08:33:13;18.73;;;17.30;;
47381;SDS011;33128;51.580;5.170;2023-04-06T08:35:39;19.38;;;17.67;;
47381;SDS011;33128;51.580;5.170;2023-04-06T08:38:05;26.58;;;17.48;;
47381;SDS011;33128;51.580;5.170;2023-04-06T08:40:35;19.42;;;17.52;;
47381;SDS011;33128;51.580;5.170;2023-04-06T08:43:02;20.58;;;18.55;;
47381;SDS011;33128;51.580;5.170;2023-04-06T08:45:33;20.70;;;18.60;;
47381;SDS011;33128;51.580;5.170;2023-04-06T08:47:59;18.90;;;17.13;;
47381;SDS011;33128;51.580;5.170;2023-04-06T08:50:26;17.35;;;15.65;;
47381;SDS011;33128;51.580;5.170;2023-04-06T08:52:55;19.77;;;17.88;;
47381;SDS011;33128;51.580;5.170;2023-04-06T08:55:21;17.40;;;16.00;;
47381;SDS011;33128;51.580;5.170;2023-04-06T08:57:47;17.10;;;14.75;;
47381;SDS011;33128;51.580;5.170;2023-04-06T09:00:14;16.08;;;9.73;;
47381;SDS011;33128;51.580;5.170;2023-04-06T09:02:41;13.00;;;10.02;;
47381;SDS011;33128;51.580;5.170;2023-04-06T09:05:08;14.88;;;10.00;;
47381;SDS011;33128;51.580;5.170;2023-04-06T09:07:35;14.65;;;10.25;;
47381;SDS011;33128;51.580;5.170;2023-04-06T09:10:01;14.73;;;9.68;;
47381;SDS011;33128;51.580;5.170;2023-04-06T09:12:29;11.80;;;9.27;;
47381;SDS011;33128;51.580;5.170;2023-04-06T09:14:55;10.45;;;8.90;;
47381;SDS011;33128;51.580;5.170;2023-04-06T09:17:23;13.15;;;9.48;;
47381;SDS011;33128;51.580;5.170;2023-04-06T09:19:49;8.93;;;7.80;;
47381;SDS011;33128;51.580;5.170;2023-04-06T09:22:15;103.70;;;94.15;;
47381;SDS011;33128;51.580;5.170;2023-04-06T09:24:51;49.38;;;44.25;;
47381;SDS011;33128;51.580;5.170;2023-04-06T09:27:17;782.42;;;717.85;;
47381;SDS011;33128;51.580;5.170;2023-04-06T09:30:02;585.70;;;539.40;;
47381;SDS011;33128;51.580;5.170;2023-04-06T09:32:28;765.45;;;709.92;;
47381;SDS011;33128;51.580;5.170;2023-04-06T09:34:53;747.53;;;686.38;;
47381;SDS011;33128;51.580;5.170;2023-04-06T09:40:01;784.53;;;721.50;;
47381;SDS011;33128;51.580;5.170;2023-04-06T09:42:28;786.28;;;721.30;;
47381;SDS011;33128;51.580;5.170;2023-04-06T09:44:54;751.05;;;688.22;;
47381;SDS011;33128;51.580;5.170;2023-04-06T09:47:19;729.00;;;665.58;;
47381;SDS011;33128;51.580;5.170;2023-04-06T09:49:48;730.25;;;665.80;;
47381;SDS011;33128;51.580;5.170;2023-04-06T09:52:15;719.90;;;656.38;;
47381;SDS011;33128;51.580;5.170;2023-04-06T09:54:42;743.10;;;681.88;;
47381;SDS011;33128;51.580;5.170;2023-04-06T09:57:17;710.00;;;648.42;;
47381;SDS011;33128;51.580;5.170;2023-04-06T10:02:41;145.60;;;135.70;;
47381;SDS011;33128;51.580;5.170;2023-04-06T10:05:42;662.80;;;605.95;;
47381;SDS011;33128;51.580;5.170;2023-04-06T10:08:12;645.67;;;598.20;;
47381;SDS011;33128;51.580;5.170;2023-04-06T10:10:38;551.25;;;510.90;;
47381;SDS011;33128;51.580;5.170;2023-04-06T10:13:04;164.77;;;154.23;;
47381;SDS011;33128;51.580;5.170;2023-04-06T10:15:30;526.00;;;486.50;;
47381;SDS011;33128;51.580;5.170;2023-04-06T10:17:57;642.70;;;583.45;;
47381;SDS011;33128;51.580;5.170;2023-04-06T10:20:33;698.42;;;647.63;;
47381;SDS011;33128;51.580;5.170;2023-04-06T10:25:51;730.35;;;674.22;;
47381;SDS011;33128;51.580;5.170;2023-04-06T10:28:25;631.92;;;573.30;;
47381;SDS011;33128;51.580;5.170;2023-04-06T10:30:58;653.42;;;605.05;;
47381;SDS011;33128;51.580;5.170;2023-04-06T10:33:25;698.55;;;646.53;;
47381;SDS011;33128;51.580;5.170;2023-04-06T10:35:50;628.22;;;580.88;;
47381;SDS011;33128;51.580;5.170;2023-04-06T10:38:16;637.80;;;580.47;;
47381;SDS011;33128;51.580;5.170;2023-04-06T10:40:46;473.65;;;438.98;;
47381;SDS011;33128;51.580;5.170;2023-04-06T10:43:14;683.88;;;631.53;;
47381;SDS011;33128;51.580;5.170;2023-04-06T10:45:44;420.20;;;389.05;;
47381;SDS011;33128;51.580;5.170;2023-04-06T10:48:20;670.85;;;621.28;;
47381;SDS011;33128;51.580;5.170;2023-04-06T10:50:51;685.22;;;628.90;;
47381;SDS011;33128;51.580;5.170;2023-04-06T10:53:23;577.35;;;534.13;;
47381;SDS011;33128;51.580;5.170;2023-04-06T10:55:50;674.15;;;622.38;;
47381;SDS011;33128;51.580;5.170;2023-04-06T10:58:17;663.95;;;614.20;;
47381;SDS011;33128;51.580;5.170;2023-04-06T11:00:46;679.70;;;629.92;;
47381;SDS011;33128;51.580;5.170;2023-04-06T11:03:13;699.67;;;646.95;;
47381;SDS011;33128;51.580;5.170;2023-04-06T11:05:43;532.88;;;494.75;;
47381;SDS011;33128;51.580;5.170;2023-04-06T11:08:25;657.30;;;595.60;;
47381;SDS011;33128;51.580;5.170;2023-04-06T11:11:11;386.35;;;358.50;;
47381;SDS011;33128;51.580;5.170;2023-04-06T11:13:45;622.75;;;578.17;;
47381;SDS011;33128;51.580;5.170;2023-04-06T11:16:15;615.88;;;571.55;;
47381;SDS011;33128;51.580;5.170;2023-04-06T11:18:48;658.58;;;600.80;;
47381;SDS011;33128;51.580;5.170;2023-04-06T11:21:19;721.45;;;669.72;;
47381;SDS011;33128;51.580;5.170;2023-04-06T11:23:45;432.52;;;400.77;;
47381;SDS011;33128;51.580;5.170;2023-04-06T11:26:11;652.10;;;605.10;;
47381;SDS011;33128;51.580;5.170;2023-04-06T11:28:39;449.70;;;414.55;;
47381;SDS011;33128;51.580;5.170;2023-04-06T11:31:06;651.92;;;593.58;;
47381;SDS011;33128;51.580;5.170;2023-04-06T11:33:35;588.75;;;547.45;;
47381;SDS011;33128;51.580;5.170;2023-04-06T11:36:05;629.03;;;568.63;;
47381;SDS011;33128;51.580;5.170;2023-04-06T11:38:31;705.30;;;652.72;;
47381;SDS011;33128;51.580;5.170;2023-04-06T11:40:57;508.55;;;471.70;;
47381;SDS011;33128;51.580;5.170;2023-04-06T11:43:27;581.00;;;534.03;;
47381;SDS011;33128;51.580;5.170;2023-04-06T11:46:00;593.58;;;552.40;;
47381;SDS011;33128;51.580;5.170;2023-04-06T11:48:43;494.77;;;454.60;;
47381;SDS011;33128;51.580;5.170;2023-04-06T11:51:10;458.02;;;426.70;;
47381;SDS011;33128;51.580;5.170;2023-04-06T11:53:43;377.13;;;351.23;;
47381;SDS011;33128;51.580;5.170;2023-04-06T11:56:10;645.17;;;600.67;;
47381;SDS011;33128;51.580;5.170;2023-04-06T11:58:36;685.90;;;632.45;;
47381;SDS011;33128;51.580;5.170;2023-04-06T12:01:05;637.97;;;583.15;;
47381;SDS011;33128;51.580;5.170;2023-04-06T12:03:31;529.40;;;493.30;;
47381;SDS011;33128;51.580;5.170;2023-04-06T12:05:56;649.33;;;591.55;;
47381;SDS011;33128;51.580;5.170;2023-04-06T12:08:22;424.73;;;395.42;;
47381;SDS011;33128;51.580;5.170;2023-04-06T12:10:50;592.25;;;550.55;;
47381;SDS011;33128;51.580;5.170;2023-04-06T12:13:16;418.83;;;387.55;;
47381;SDS011;33128;51.580;5.170;2023-04-06T12:15:41;374.58;;;348.52;;
47381;SDS011;33128;51.580;5.170;2023-04-06T12:18:07;377.40;;;351.00;;
47381;SDS011;33128;51.580;5.170;2023-04-06T12:20:32;412.80;;;384.73;;
47381;SDS011;33128;51.580;5.170;2023-04-06T12:22:58;234.82;;;218.43;;
47381;SDS011;33128;51.580;5.170;2023-04-06T12:25:24;549.72;;;507.92;;
47381;SDS011;33128;51.580;5.170;2023-04-06T12:27:50;264.80;;;247.27;;
47381;SDS011;33128;51.580;5.170;2023-04-06T12:30:18;610.00;;;563.47;;
47381;SDS011;33128;51.580;5.170;2023-04-06T12:32:44;551.03;;;509.88;;
47381;SDS011;33128;51.580;5.170;2023-04-06T12:35:10;107.50;;;100.65;;
47381;SDS011;33128;51.580;5.170;2023-04-06T12:37:36;55.78;;;51.72;;
47381;SDS011;33128;51.580;5.170;2023-04-06T12:40:02;137.95;;;128.82;;
47381;SDS011;33128;51.580;5.170;2023-04-06T12:42:32;73.90;;;69.22;;
47381;SDS011;33128;51.580;5.170;2023-04-06T12:44:57;210.32;;;195.68;;
47381;SDS011;33128;51.580;5.170;2023-04-06T12:47:23;391.50;;;363.27;;
47381;SDS011;33128;51.580;5.170;2023-04-06T12:49:51;72.65;;;67.97;;
47381;SDS011;33128;51.580;5.170;2023-04-06T12:52:16;26.42;;;24.83;;
47381;SDS011;33128;51.580;5.170;2023-04-06T12:54:42;13.13;;;12.13;;
47381;SDS011;33128;51.580;5.170;2023-04-06T12:57:08;10.82;;;9.40;;
47381;SDS011;33128;51.580;5.170;2023-04-06T12:59:33;14.35;;;13.20;;
47381;SDS011;33128;51.580;5.170;2023-04-06T13:02:00;129.45;;;120.40;;
47381;SDS011;33128;51.580;5.170;2023-04-06T13:04:26;382.55;;;355.73;;
47381;SDS011;33128;51.580;5.170;2023-04-06T13:06:51;510.40;;;474.83;;
47381;SDS011;33128;51.580;5.170;2023-04-06T13:09:17;657.83;;;612.53;;
47381;SDS011;33128;51.580;5.170;2023-04-06T13:11:42;662.97;;;610.30;;
47381;SDS011;33128;51.580;5.170;2023-04-06T13:14:08;617.22;;;559.30;;
47381;SDS011;33128;51.580;5.170;2023-04-06T13:16:34;652.83;;;595.15;;
47381;SDS011;33128;51.580;5.170;2023-04-06T13:19:00;461.00;;;428.52;;
47381;SDS011;33128;51.580;5.170;2023-04-06T13:21:26;675.13;;;627.58;;
47381;SDS011;33128;51.580;5.170;2023-04-06T13:23:51;601.22;;;558.00;;
47381;SDS011;33128;51.580;5.170;2023-04-06T13:26:17;710.70;;;659.17;;
47381;SDS011;33128;51.580;5.170;2023-04-06T13:28:43;600.13;;;557.25;;
47381;SDS011;33128;51.580;5.170;2023-04-06T13:31:08;559.53;;;520.30;;
47381;SDS011;33128;51.580;5.170;2023-04-06T13:33:35;543.90;;;501.35;;
47381;SDS011;33128;51.580;5.170;2023-04-06T13:36:00;446.50;;;415.30;;
47381;SDS011;33128;51.580;5.170;2023-04-06T13:38:26;388.45;;;361.92;;
47381;SDS011;33128;51.580;5.170;2023-04-06T13:40:52;595.30;;;552.78;;
47381;SDS011;33128;51.580;5.170;2023-04-06T13:43:18;538.20;;;501.33;;
47381;SDS011;33128;51.580;5.170;2023-04-06T13:45:50;623.45;;;572.47;;
47381;SDS011;33128;51.580;5.170;2023-04-06T13:48:18;417.60;;;388.50;;
47381;SDS011;33128;51.580;5.170;2023-04-06T13:50:44;487.52;;;452.67;;
47381;SDS011;33128;51.580;5.170;2023-04-06T13:53:10;329.92;;;307.92;;
47381;SDS011;33128;51.580;5.170;2023-04-06T13:55:36;427.45;;;397.92;;
47381;SDS011;33128;51.580;5.170;2023-04-06T13:58:01;582.00;;;538.28;;
47381;SDS011;33128;51.580;5.170;2023-04-06T14:00:27;367.85;;;343.45;;
47381;SDS011;33128;51.580;5.170;2023-04-06T14:02:53;649.15;;;596.05;;
47381;SDS011;33128;51.580;5.170;2023-04-06T14:05:20;507.02;;;466.63;;
47381;SDS011;33128;51.580;5.170;2023-04-06T14:07:46;581.80;;;541.70;;
47381;SDS011;33128;51.580;5.170;2023-04-06T14:10:11;418.75;;;390.25;;
47381;SDS011;33128;51.580;5.170;2023-04-06T14:12:42;546.97;;;508.67;;